createdAt,value
2017-11-28T00:00:50.289Z,5.70
2017-11-28T00:03:18.619Z,5.70
2017-11-28T00:05:46.189Z,5.70
2017-11-28T00:08:13.781Z,5.80
2017-11-28T00:10:42.110Z,5.70
2017-11-28T00:13:09.845Z,5.70
2017-11-28T00:15:37.413Z,5.70
2017-11-28T00:18:04.985Z,5.70
2017-11-28T00:20:32.594Z,5.70
2017-11-28T00:23:00.189Z,5.70
2017-11-28T00:25:27.765Z,5.70
2017-11-28T00:27:55.374Z,5.70
2017-11-28T00:30:22.950Z,5.70
2017-11-28T00:32:50.514Z,5.80
2017-11-28T00:35:18.097Z,5.70
2017-11-28T00:37:45.665Z,5.70
2017-11-28T00:40:13.294Z,5.70
2017-11-28T00:42:40.923Z,5.70
2017-11-28T00:45:09.327Z,5.70
2017-11-28T00:47:36.888Z,5.60
2017-11-28T00:50:04.449Z,5.70
2017-11-28T00:52:32.156Z,5.70
2017-11-28T00:54:59.753Z,5.70
2017-11-28T00:57:27.474Z,5.70
2017-11-28T00:59:55.041Z,5.60
2017-11-28T01:02:22.712Z,5.60
2017-11-28T01:04:51.249Z,5.60
2017-11-28T01:07:18.894Z,5.60
2017-11-28T01:09:46.481Z,5.60
2017-11-28T01:12:14.129Z,5.60
2017-11-28T01:14:41.772Z,5.60
2017-11-28T01:17:09.380Z,5.60
2017-11-28T01:19:36.937Z,5.60
2017-11-28T01:22:04.541Z,5.60
2017-11-28T01:24:32.101Z,5.50
2017-11-28T01:26:59.662Z,5.50
2017-11-28T01:29:27.238Z,5.50
2017-11-28T01:31:54.803Z,5.50
2017-11-28T01:34:22.392Z,5.50
2017-11-28T01:36:49.949Z,5.50
2017-11-28T01:39:17.551Z,5.50
2017-11-28T01:41:45.124Z,5.50
2017-11-28T01:44:12.680Z,5.50
2017-11-28T01:46:40.265Z,5.50
2017-11-28T01:49:07.835Z,5.50
2017-11-28T01:51:35.429Z,5.50
2017-11-28T01:54:03.934Z,5.50
2017-11-28T01:56:31.701Z,5.50
2017-11-28T01:58:59.288Z,5.50
2017-11-28T02:01:26.885Z,5.50
2017-11-28T02:03:55.393Z,5.50
2017-11-28T02:06:22.951Z,5.50
2017-11-28T02:08:50.505Z,5.50
2017-11-28T02:11:18.090Z,5.50
2017-11-28T02:13:45.669Z,5.50
2017-11-28T02:16:13.337Z,5.50
2017-11-28T02:18:40.921Z,5.50
2017-11-28T02:21:09.300Z,5.50
2017-11-28T02:23:36.978Z,5.50
2017-11-28T02:26:04.586Z,5.60
2017-11-28T02:28:32.165Z,5.60
2017-11-28T02:31:00.553Z,5.60
2017-11-28T02:33:28.897Z,5.60
2017-11-28T02:35:56.502Z,5.60
2017-11-28T02:38:24.125Z,5.70
2017-11-28T02:41:03.717Z,5.70
2017-11-28T02:43:31.376Z,5.70
2017-11-28T02:45:59.023Z,5.70
2017-11-28T02:48:26.716Z,5.70
2017-11-28T02:50:54.303Z,5.70
2017-11-28T02:53:21.868Z,5.70
2017-11-28T02:55:52.372Z,5.70
2017-11-28T02:58:26.362Z,5.70
2017-11-28T03:01:08.541Z,5.70
2017-11-28T03:03:36.165Z,5.80
2017-11-28T03:06:03.758Z,5.80
2017-11-28T03:08:31.317Z,5.80
2017-11-28T03:10:58.864Z,5.80
2017-11-28T03:13:28.844Z,5.80
2017-11-28T03:15:59.281Z,5.80
2017-11-28T03:18:30.464Z,5.90
2017-11-28T03:21:09.605Z,5.90
2017-11-28T03:23:48.012Z,5.90
2017-11-28T03:26:18.247Z,5.90
2017-11-28T03:28:48.564Z,6.00
2017-11-28T03:31:17.830Z,6.00
2017-11-28T03:33:45.421Z,6.00
2017-11-28T03:36:13.018Z,6.00
2017-11-28T03:38:40.636Z,6.00
2017-11-28T03:41:08.280Z,6.00
2017-11-28T03:43:35.901Z,6.10
2017-11-28T03:46:05.332Z,6.10
2017-11-28T03:48:33.667Z,6.10
2017-11-28T03:51:01.281Z,6.10
2017-11-28T03:53:28.924Z,6.20
2017-11-28T03:55:56.571Z,6.20
2017-11-28T03:58:25.156Z,6.20
2017-11-28T04:00:53.496Z,6.20
2017-11-28T04:03:21.141Z,6.10
2017-11-28T04:05:48.801Z,6.20
2017-11-28T04:08:16.424Z,6.20
2017-11-28T04:10:44.751Z,6.10
2017-11-28T04:13:12.404Z,6.10
2017-11-28T04:15:40.009Z,6.20
2017-11-28T04:18:08.441Z,6.20
2017-11-28T04:20:36.109Z,6.10
2017-11-28T04:23:03.653Z,6.10
2017-11-28T04:25:31.267Z,6.20
2017-11-28T04:27:59.694Z,6.20
2017-11-28T04:30:27.329Z,6.20
2017-11-28T04:32:55.013Z,6.20
2017-11-28T04:35:22.578Z,6.20
2017-11-28T04:37:50.210Z,6.10
2017-11-28T04:40:17.987Z,6.10
2017-11-28T04:42:45.597Z,6.10
2017-11-28T04:45:13.272Z,6.10
2017-11-28T04:47:41.689Z,6.10
2017-11-28T04:50:09.379Z,6.10
2017-11-28T04:52:38.472Z,6.00
2017-11-28T04:55:06.097Z,6.10
2017-11-28T04:57:33.812Z,6.00
2017-11-28T05:00:01.425Z,6.10
2017-11-28T05:02:29.068Z,6.00
2017-11-28T05:04:56.669Z,6.00
2017-11-28T05:07:24.296Z,6.00
2017-11-28T05:09:51.844Z,6.00
2017-11-28T05:12:19.469Z,6.00
2017-11-28T05:14:47.077Z,6.00
2017-11-28T05:17:14.676Z,6.00
2017-11-28T05:19:42.321Z,6.00
2017-11-28T05:22:09.877Z,6.00
2017-11-28T05:24:37.530Z,6.00
2017-11-28T05:27:05.161Z,6.00
2017-11-28T05:29:32.865Z,6.00
2017-11-28T05:32:00.525Z,5.90
2017-11-28T05:34:28.135Z,5.90
2017-11-28T05:36:55.920Z,5.90
2017-11-28T05:39:23.490Z,5.90
2017-11-28T05:41:51.157Z,5.90
2017-11-28T05:44:18.779Z,5.90
2017-11-28T05:46:46.354Z,5.90
2017-11-28T05:49:14.056Z,5.90
2017-11-28T05:51:42.448Z,5.90
2017-11-28T05:54:10.025Z,5.90
2017-11-28T05:56:38.344Z,5.90
2017-11-28T05:59:05.977Z,5.90
2017-11-28T06:01:33.544Z,6.00
2017-11-28T06:04:01.183Z,5.90
2017-11-28T06:06:28.964Z,5.90
2017-11-28T06:08:56.712Z,5.90
2017-11-28T06:11:24.309Z,5.90
2017-11-28T06:13:51.960Z,5.90
2017-11-28T06:16:19.545Z,5.90
2017-11-28T06:18:47.196Z,5.90
2017-11-28T06:21:14.817Z,5.90
2017-11-28T06:23:42.432Z,5.90
2017-11-28T06:26:10.096Z,5.90
2017-11-28T06:28:37.713Z,5.90
2017-11-28T06:31:05.444Z,5.90
2017-11-28T06:33:33.089Z,5.90
2017-11-28T06:36:00.732Z,5.90
2017-11-28T06:38:28.384Z,5.90
2017-11-28T06:40:56.010Z,5.90
2017-11-28T06:43:23.912Z,5.90
2017-11-28T06:45:51.544Z,5.90
2017-11-28T06:48:19.203Z,5.90
2017-11-28T06:50:46.758Z,5.90
2017-11-28T06:53:14.485Z,5.90
2017-11-28T06:55:42.889Z,5.90
2017-11-28T06:58:10.531Z,5.90
2017-11-28T07:00:38.903Z,5.90
2017-11-28T07:03:07.449Z,6.10
2017-11-28T07:05:35.040Z,6.00
2017-11-28T07:08:03.379Z,6.10
2017-11-28T07:10:31.005Z,6.10
2017-11-28T07:12:58.560Z,6.00
2017-11-28T07:15:26.109Z,6.00
2017-11-28T07:17:53.692Z,5.90
2017-11-28T07:20:21.270Z,6.00
2017-11-28T07:22:49.076Z,5.90
2017-11-28T07:25:17.461Z,6.00
2017-11-28T07:27:45.135Z,5.90
2017-11-28T07:30:12.717Z,5.90
2017-11-28T07:32:40.287Z,5.90
2017-11-28T07:35:08.045Z,6.00
2017-11-28T07:37:35.671Z,5.90
2017-11-28T07:40:03.365Z,5.90
2017-11-28T07:42:31.001Z,5.90
2017-11-28T07:44:58.584Z,5.90
2017-11-28T07:47:26.224Z,5.90
2017-11-28T07:49:53.781Z,5.90
2017-11-28T07:52:21.447Z,5.90
2017-11-28T07:54:49.088Z,5.90
2017-11-28T07:57:16.644Z,6.00
2017-11-28T07:59:44.232Z,6.00
2017-11-28T08:02:11.780Z,6.00
2017-11-28T08:04:39.472Z,5.90
2017-11-28T08:07:07.026Z,5.90
2017-11-28T08:09:34.668Z,5.90
2017-11-28T08:12:02.283Z,5.90
2017-11-28T08:14:30.789Z,5.90
2017-11-28T08:16:58.402Z,5.90
2017-11-28T08:19:25.993Z,5.90
2017-11-28T08:21:54.373Z,5.90
2017-11-28T08:24:22.721Z,5.90
2017-11-28T08:26:50.276Z,5.90
2017-11-28T08:29:17.848Z,6.00
2017-11-28T08:31:46.174Z,6.00
2017-11-28T08:34:16.402Z,6.00
2017-11-28T08:36:44.090Z,6.00
2017-11-28T08:39:12.481Z,6.00
2017-11-28T08:41:40.057Z,6.00
2017-11-28T08:44:08.386Z,6.00
2017-11-28T08:46:35.980Z,6.00
2017-11-28T08:49:04.309Z,6.00
2017-11-28T08:51:31.972Z,6.00
2017-11-28T08:53:59.733Z,6.00
2017-11-28T08:56:27.618Z,6.00
2017-11-28T08:58:55.208Z,6.10
2017-11-28T09:01:23.553Z,6.00
2017-11-28T09:03:51.157Z,6.00
2017-11-28T09:06:18.785Z,6.00
2017-11-28T09:08:46.387Z,6.00
2017-11-28T09:11:13.965Z,6.00
2017-11-28T09:13:41.556Z,6.10
2017-11-28T09:16:09.121Z,6.00
2017-11-28T09:18:36.732Z,6.10
2017-11-28T09:21:04.294Z,6.10
2017-11-28T09:23:31.895Z,6.10
2017-11-28T09:25:59.523Z,6.10
2017-11-28T09:28:27.101Z,6.10
2017-11-28T09:30:54.761Z,6.10
2017-11-28T09:33:22.320Z,6.20
2017-11-28T09:35:49.938Z,6.10
2017-11-28T09:38:17.609Z,6.10
2017-11-28T09:40:45.181Z,6.10
2017-11-28T09:43:12.820Z,6.20
2017-11-28T09:45:40.373Z,6.20
2017-11-28T09:48:07.931Z,6.10
2017-11-28T09:50:35.523Z,6.20
2017-11-28T09:53:03.088Z,6.10
2017-11-28T09:55:30.642Z,6.20
2017-11-28T09:57:58.232Z,6.10
2017-11-28T10:00:25.820Z,6.10
2017-11-28T10:02:53.435Z,6.00
2017-11-28T10:05:20.997Z,6.10
2017-11-28T10:07:48.681Z,6.10
2017-11-28T10:10:17.048Z,6.10
2017-11-28T10:12:44.697Z,6.10
2017-11-28T10:15:12.293Z,6.10
2017-11-28T10:17:39.856Z,6.00
2017-11-28T10:20:07.460Z,6.00
2017-11-28T10:22:35.021Z,6.00
2017-11-28T10:25:02.616Z,6.00
2017-11-28T10:27:31.146Z,6.00
2017-11-28T10:29:58.710Z,6.00
2017-11-28T10:32:26.497Z,5.90
2017-11-28T10:34:54.049Z,6.00
2017-11-28T10:37:23.136Z,5.90
2017-11-28T10:39:50.704Z,5.90
2017-11-28T10:42:18.292Z,6.00
2017-11-28T10:44:46.629Z,5.90
2017-11-28T10:47:14.250Z,5.90
2017-11-28T10:49:41.828Z,6.00
2017-11-28T10:52:09.580Z,6.00
2017-11-28T10:54:37.162Z,6.00
2017-11-28T10:57:04.826Z,5.90
2017-11-28T10:59:32.446Z,5.90
2017-11-28T11:02:00.000Z,6.10
2017-11-28T11:04:27.555Z,6.20
2017-11-28T11:06:55.262Z,6.10
2017-11-28T11:09:22.823Z,6.10
2017-11-28T11:11:50.401Z,5.90
2017-11-28T11:14:17.950Z,6.00
2017-11-28T11:16:45.561Z,6.00
2017-11-28T11:19:13.129Z,6.00
2017-11-28T11:21:40.704Z,5.80
2017-11-28T11:24:08.291Z,5.90
2017-11-28T11:26:36.677Z,6.00
2017-11-28T11:29:04.249Z,6.00
2017-11-28T11:31:32.658Z,6.10
2017-11-28T11:34:00.269Z,6.00
2017-11-28T11:36:27.828Z,6.10
2017-11-28T11:38:55.388Z,6.00
2017-11-28T11:41:23.774Z,6.10
2017-11-28T11:43:52.296Z,6.20
2017-11-28T11:46:19.890Z,6.10
2017-11-28T11:48:47.446Z,6.30
2017-11-28T11:51:15.037Z,6.20
2017-11-28T11:53:43.448Z,6.20
2017-11-28T11:56:11.121Z,6.20
2017-11-28T11:58:38.737Z,6.20
2017-11-28T12:01:07.073Z,6.10
2017-11-28T12:03:34.676Z,6.10
2017-11-28T12:06:02.981Z,6.20
2017-11-28T12:08:30.563Z,6.10
2017-11-28T12:10:58.152Z,6.10
2017-11-28T12:13:26.480Z,6.10
2017-11-28T12:15:54.132Z,6.10
2017-11-28T12:18:21.728Z,6.20
2017-11-28T12:20:49.290Z,6.10
2017-11-28T12:23:16.881Z,6.10
2017-11-28T12:25:45.212Z,6.10
2017-11-28T12:28:12.856Z,6.10
2017-11-28T12:30:40.526Z,6.10
2017-11-28T12:33:08.093Z,6.20
2017-11-28T12:35:36.750Z,6.10
2017-11-28T12:38:04.348Z,6.00
2017-11-28T12:40:31.965Z,6.10
2017-11-28T12:42:59.541Z,6.20
2017-11-28T12:45:27.112Z,6.30
2017-11-28T12:47:54.715Z,6.30
2017-11-28T12:50:23.184Z,6.30
2017-11-28T12:52:51.718Z,6.20
2017-11-28T12:55:19.282Z,6.20
2017-11-28T12:57:46.888Z,6.20
2017-11-28T13:00:15.271Z,6.10
2017-11-28T13:02:43.610Z,6.20
2017-11-28T13:05:11.208Z,6.20
2017-11-28T13:07:39.544Z,6.30
2017-11-28T13:10:07.151Z,6.30
2017-11-28T13:12:34.756Z,6.20
2017-11-28T13:15:02.310Z,6.20
2017-11-28T13:17:29.872Z,6.30
2017-11-28T13:19:57.513Z,6.30
2017-11-28T13:22:25.088Z,6.30
2017-11-28T13:24:52.746Z,6.20
2017-11-28T13:27:20.325Z,6.20
2017-11-28T13:29:47.961Z,6.20
2017-11-28T13:32:15.622Z,6.10
2017-11-28T13:34:43.210Z,6.20
2017-11-28T13:37:10.777Z,6.20
2017-11-28T13:39:38.438Z,6.20
2017-11-28T13:42:06.039Z,6.30
2017-11-28T13:44:33.625Z,6.20
2017-11-28T13:47:01.248Z,6.20
2017-11-28T13:49:28.797Z,6.20
2017-11-28T13:51:56.374Z,6.10
2017-11-28T13:54:23.945Z,6.00
2017-11-28T13:56:51.629Z,6.00
2017-11-28T13:59:19.190Z,6.10
2017-11-28T14:01:46.795Z,6.00
2017-11-28T14:04:14.404Z,6.00
2017-11-28T14:06:41.973Z,6.00
2017-11-28T14:09:09.568Z,6.00
2017-11-28T14:11:37.151Z,6.00
2017-11-28T14:14:04.746Z,5.90
2017-11-28T14:16:32.314Z,5.90
2017-11-28T14:18:59.914Z,5.90
2017-11-28T14:21:45.235Z,5.90
2017-11-28T14:24:18.494Z,5.80
2017-11-28T14:29:46.480Z,5.90
2017-11-28T14:32:29.789Z,5.90
2017-11-28T14:35:03.038Z,5.90
2017-11-28T14:37:30.643Z,5.90
2017-11-28T14:39:58.265Z,6.00
2017-11-28T14:42:26.749Z,6.00
2017-11-28T14:44:59.274Z,6.00
2017-11-28T14:47:26.871Z,6.00
2017-11-28T14:49:54.492Z,6.00
2017-11-28T14:52:24.512Z,5.90
2017-11-28T14:54:53.572Z,6.00
2017-11-28T14:57:26.515Z,5.90
2017-11-28T14:59:59.790Z,5.90
2017-11-28T15:02:33.105Z,5.80
2017-11-28T15:05:06.420Z,5.70
2017-11-28T15:10:42.311Z,5.80
2017-11-28T15:13:16.341Z,5.80
2017-11-28T15:19:08.636Z,5.80
2017-11-28T15:21:40.897Z,5.70
2017-11-28T15:24:09.337Z,5.60
2017-11-28T15:26:37.012Z,5.50
2017-11-28T15:29:19.617Z,5.40
2017-11-28T15:31:47.458Z,5.50
2017-11-28T15:34:15.938Z,5.60
2017-11-28T15:36:44.453Z,5.50
2017-11-28T15:39:12.109Z,5.50
2017-11-28T15:41:39.717Z,5.40
2017-11-28T15:44:07.308Z,5.50
2017-11-28T15:46:34.989Z,5.50
2017-11-28T15:49:02.649Z,5.50
2017-11-28T15:51:30.229Z,5.50
2017-11-28T15:53:57.846Z,5.50
2017-11-28T15:56:25.449Z,5.30
2017-11-28T15:58:53.016Z,5.20
2017-11-28T16:01:20.622Z,5.10
2017-11-28T16:03:48.181Z,5.10
2017-11-28T16:06:15.822Z,5.10
2017-11-28T16:08:44.153Z,5.00
2017-11-28T16:11:11.746Z,5.00
2017-11-28T16:13:39.357Z,5.00
2017-11-28T16:16:06.987Z,5.00
2017-11-28T16:18:34.556Z,4.90
2017-11-28T16:21:02.142Z,4.80
2017-11-28T16:23:29.728Z,4.70
2017-11-28T16:25:57.374Z,4.80
2017-11-28T16:28:24.982Z,4.70
2017-11-28T16:30:53.338Z,4.70
2017-11-28T16:33:21.153Z,4.70
2017-11-28T16:35:48.773Z,4.70
2017-11-28T16:38:17.109Z,4.60
2017-11-28T16:40:44.720Z,4.60
2017-11-28T16:43:13.053Z,4.50
2017-11-28T16:45:40.665Z,4.50
2017-11-28T16:48:08.281Z,4.50
2017-11-28T16:50:35.920Z,4.50
2017-11-28T16:53:03.604Z,4.40
2017-11-28T16:55:31.180Z,4.30
2017-11-28T16:57:59.568Z,4.30
2017-11-28T17:00:27.934Z,4.20
2017-11-28T17:02:56.276Z,4.20
2017-11-28T17:05:23.882Z,4.20
2017-11-28T17:07:52.306Z,4.10
2017-11-28T17:10:19.965Z,4.10
2017-11-28T17:12:47.532Z,4.00
2017-11-28T17:15:15.125Z,4.00
2017-11-28T17:17:43.461Z,4.00
2017-11-28T17:20:11.094Z,4.00
2017-11-28T17:22:38.696Z,4.10
2017-11-28T17:25:06.331Z,4.00
2017-11-28T17:27:34.045Z,4.10
2017-11-28T17:30:01.627Z,4.00
2017-11-28T17:32:29.242Z,4.00
2017-11-28T17:34:56.813Z,4.00
2017-11-28T17:37:24.403Z,4.00
2017-11-28T17:39:52.009Z,4.00
2017-11-28T17:42:19.601Z,4.00
2017-11-28T17:44:47.982Z,4.00
2017-11-28T17:47:16.364Z,4.00
2017-11-28T17:49:44.737Z,4.00
2017-11-28T17:52:13.089Z,3.90
2017-11-28T17:54:40.713Z,3.90
2017-11-28T17:57:08.289Z,3.90
2017-11-28T17:59:36.136Z,3.90
2017-11-28T18:02:03.893Z,3.90
2017-11-28T18:04:31.481Z,3.90
2017-11-28T18:06:59.124Z,3.90
2017-11-28T18:09:26.805Z,3.90
2017-11-28T18:11:54.397Z,3.80
2017-11-28T18:14:22.760Z,3.80
2017-11-28T18:16:50.351Z,3.80
2017-11-28T18:19:17.951Z,3.90
2017-11-28T18:21:45.553Z,3.80
2017-11-28T18:24:14.082Z,3.80
2017-11-28T18:26:41.680Z,3.80
2017-11-28T18:29:10.027Z,3.80
2017-11-28T18:31:37.632Z,3.80
2017-11-28T18:34:05.989Z,3.80
2017-11-28T18:36:33.751Z,3.80
2017-11-28T18:39:01.449Z,3.90
2017-11-28T18:41:29.069Z,3.80
2017-11-28T18:43:57.419Z,3.80
2017-11-28T18:46:25.004Z,3.80
2017-11-28T18:48:52.597Z,3.80
2017-11-28T18:51:20.169Z,3.80
2017-11-28T18:53:47.786Z,3.90
2017-11-28T18:56:15.472Z,3.80
2017-11-28T18:58:43.816Z,3.80
2017-11-28T19:01:11.426Z,3.80
2017-11-28T19:03:39.041Z,3.80
2017-11-28T19:06:06.629Z,3.80
2017-11-28T19:08:34.986Z,3.80
2017-11-28T19:11:02.593Z,3.70
2017-11-28T19:13:30.173Z,3.80
2017-11-28T19:15:57.775Z,3.70
2017-11-28T19:18:26.111Z,3.80
2017-11-28T19:20:53.726Z,3.80
2017-11-28T19:23:21.314Z,3.70
2017-11-28T19:25:48.894Z,3.70
2017-11-28T19:28:16.508Z,3.70
2017-11-28T19:30:44.092Z,3.70
2017-11-28T19:33:11.694Z,3.70
2017-11-28T19:35:39.273Z,3.80
2017-11-28T19:38:07.633Z,3.80
2017-11-28T19:40:36.005Z,3.80
2017-11-28T19:43:03.580Z,3.80
2017-11-28T19:45:31.955Z,3.80
2017-11-28T19:48:00.320Z,3.80
2017-11-28T19:50:27.937Z,3.80
2017-11-28T19:52:55.513Z,3.80
2017-11-28T19:55:23.144Z,3.80
2017-11-28T19:57:50.729Z,3.80
2017-11-28T20:00:18.327Z,3.80
2017-11-28T20:02:46.705Z,3.70
2017-11-28T20:05:15.069Z,3.70
2017-11-28T20:07:42.684Z,3.70
2017-11-28T20:10:10.341Z,3.70
2017-11-28T20:12:38.038Z,3.80
2017-11-28T20:15:05.637Z,3.60
2017-11-28T20:17:33.209Z,3.70
2017-11-28T20:20:00.839Z,3.70
2017-11-28T20:22:29.335Z,3.70
2017-11-28T20:24:56.961Z,3.70
2017-11-28T20:27:24.542Z,3.70
2017-11-28T20:29:52.977Z,3.70
2017-11-28T20:32:20.593Z,3.70
2017-11-28T20:34:48.204Z,3.70
2017-11-28T20:37:15.817Z,3.80
2017-11-28T20:39:43.425Z,3.70
2017-11-28T20:42:11.042Z,3.70
2017-11-28T20:44:38.632Z,3.70
2017-11-28T20:47:06.219Z,3.70
2017-11-28T20:49:33.836Z,3.60
2017-11-28T20:52:01.456Z,3.70
2017-11-28T20:54:29.838Z,3.70
2017-11-28T20:56:58.242Z,3.80
2017-11-28T20:59:25.932Z,3.80
2017-11-28T21:01:53.518Z,3.80
2017-11-28T21:04:21.124Z,3.70
2017-11-28T21:06:48.776Z,3.70
2017-11-28T21:09:16.357Z,3.60
2017-11-28T21:11:43.997Z,3.60
2017-11-28T21:14:11.569Z,3.60
2017-11-28T21:16:39.138Z,3.70
2017-11-28T21:19:06.745Z,3.70
2017-11-28T21:21:35.118Z,3.80
2017-11-28T21:24:03.633Z,3.80
2017-11-28T21:26:31.223Z,3.80
2017-11-28T21:28:58.843Z,3.80
2017-11-28T21:31:26.442Z,3.80
2017-11-28T21:33:54.048Z,3.80
2017-11-28T21:36:21.691Z,3.80
2017-11-28T21:38:50.055Z,3.80
2017-11-28T21:41:17.652Z,3.80
2017-11-28T21:43:45.296Z,3.80
2017-11-28T21:46:13.642Z,3.80
2017-11-28T21:48:41.207Z,3.70
2017-11-28T21:51:08.806Z,3.80
2017-11-28T21:53:36.406Z,3.70
2017-11-28T21:56:04.021Z,3.80
2017-11-28T21:58:31.612Z,3.80
2017-11-28T22:00:59.314Z,3.90
2017-11-28T22:03:26.893Z,3.90
2017-11-28T22:05:55.252Z,3.80
2017-11-28T22:08:22.854Z,3.80
2017-11-28T22:10:50.485Z,3.80
2017-11-28T22:13:18.813Z,3.80
2017-11-28T22:15:46.444Z,3.80
2017-11-28T22:18:14.186Z,3.90
2017-11-28T22:20:41.766Z,3.80
2017-11-28T22:23:09.407Z,3.80
2017-11-28T22:25:37.786Z,3.90
2017-11-28T22:28:06.168Z,3.80
2017-11-28T22:30:33.762Z,3.80
2017-11-28T22:33:01.352Z,3.90
2017-11-28T22:35:29.861Z,3.70
2017-11-28T22:37:57.429Z,3.70
2017-11-28T22:40:25.037Z,3.80
2017-11-28T22:42:52.612Z,3.90
2017-11-28T22:45:20.185Z,3.90
2017-11-28T22:47:48.563Z,3.80
2017-11-28T22:50:17.017Z,3.80
2017-11-28T22:52:44.633Z,3.80
2017-11-28T22:55:12.192Z,3.70
2017-11-28T22:57:39.768Z,3.80
2017-11-28T23:00:07.401Z,3.80
2017-11-28T23:02:35.051Z,3.80
2017-11-28T23:05:03.426Z,3.70
2017-11-28T23:07:31.891Z,3.60
2017-11-28T23:10:00.264Z,3.60
2017-11-28T23:12:27.834Z,3.60
2017-11-28T23:14:55.445Z,3.70
2017-11-28T23:17:23.060Z,3.70
2017-11-28T23:19:51.444Z,3.70
2017-11-28T23:22:19.014Z,3.70
2017-11-28T23:24:46.582Z,3.70
2017-11-28T23:27:14.194Z,3.70
2017-11-28T23:29:42.570Z,3.70
2017-11-28T23:32:10.186Z,3.70
2017-11-28T23:34:37.749Z,3.80
2017-11-28T23:37:05.325Z,3.80
2017-11-28T23:39:32.914Z,3.80
2017-11-28T23:42:01.255Z,3.80
2017-11-28T23:44:28.862Z,3.80
2017-11-28T23:46:57.204Z,3.80
2017-11-28T23:49:24.777Z,3.70
2017-11-28T23:51:52.425Z,3.70
2017-11-28T23:54:20.004Z,3.70
2017-11-28T23:56:48.359Z,3.60
2017-11-28T23:59:15.937Z,3.50
